sensor_id;sensor_type;location;lat;lon;timestamp;temperature;humidity
73121;DHT22;61307;49.628;-1.624;2023-02-20T00:01:29;16.70;49.30
73121;DHT22;61307;49.628;-1.624;2023-02-20T00:03:57;16.70;49.30
73121;DHT22;61307;49.628;-1.624;2023-02-20T00:06:24;16.70;49.20
73121;DHT22;61307;49.628;-1.624;2023-02-20T00:08:51;16.70;49.30
73121;DHT22;61307;49.628;-1.624;2023-02-20T00:11:18;16.60;49.10
73121;DHT22;61307;49.628;-1.624;2023-02-20T00:13:45;16.70;49.20
73121;DHT22;61307;49.628;-1.624;2023-02-20T00:16:13;16.70;49.20
73121;DHT22;61307;49.628;-1.624;2023-02-20T00:18:41;16.70;49.20
73121;DHT22;61307;49.628;-1.624;2023-02-20T00:21:09;16.70;49.20
73121;DHT22;61307;49.628;-1.624;2023-02-20T00:23:36;16.70;49.20
73121;DHT22;61307;49.628;-1.624;2023-02-20T00:26:07;16.70;49.20
73121;DHT22;61307;49.628;-1.624;2023-02-20T00:28:34;16.70;49.20
73121;DHT22;61307;49.628;-1.624;2023-02-20T00:31:01;16.70;49.20
73121;DHT22;61307;49.628;-1.624;2023-02-20T00:33:28;16.70;49.10
73121;DHT22;61307;49.628;-1.624;2023-02-20T00:35:57;16.70;49.10
73121;DHT22;61307;49.628;-1.624;2023-02-20T00:38:24;16.70;49.20
73121;DHT22;61307;49.628;-1.624;2023-02-20T00:40:51;16.60;49.10
73121;DHT22;61307;49.628;-1.624;2023-02-20T00:43:18;16.70;49.20
73121;DHT22;61307;49.628;-1.624;2023-02-20T00:45:45;16.70;49.20
73121;DHT22;61307;49.628;-1.624;2023-02-20T00:48:13;16.70;49.10
73121;DHT22;61307;49.628;-1.624;2023-02-20T00:50:40;16.60;49.10
73121;DHT22;61307;49.628;-1.624;2023-02-20T00:53:08;16.60;49.10
73121;DHT22;61307;49.628;-1.624;2023-02-20T00:55:35;16.60;49.10
73121;DHT22;61307;49.628;-1.624;2023-02-20T00:58:02;16.60;49.10
73121;DHT22;61307;49.628;-1.624;2023-02-20T01:00:30;16.60;49.00
73121;DHT22;61307;49.628;-1.624;2023-02-20T01:02:57;16.60;49.00
73121;DHT22;61307;49.628;-1.624;2023-02-20T01:05:24;16.60;49.00
73121;DHT22;61307;49.628;-1.624;2023-02-20T01:07:51;16.60;49.10
73121;DHT22;61307;49.628;-1.624;2023-02-20T01:10:20;16.60;49.00
73121;DHT22;61307;49.628;-1.624;2023-02-20T01:12:47;16.60;49.10
73121;DHT22;61307;49.628;-1.624;2023-02-20T01:15:14;16.60;49.00
73121;DHT22;61307;49.628;-1.624;2023-02-20T01:17:42;16.60;49.00
73121;DHT22;61307;49.628;-1.624;2023-02-20T01:20:10;16.60;49.10
73121;DHT22;61307;49.628;-1.624;2023-02-20T01:22:37;16.60;49.10
73121;DHT22;61307;49.628;-1.624;2023-02-20T01:25:05;16.60;49.10
73121;DHT22;61307;49.628;-1.624;2023-02-20T01:27:33;16.60;49.10
73121;DHT22;61307;49.628;-1.624;2023-02-20T01:30:00;16.60;49.10
73121;DHT22;61307;49.628;-1.624;2023-02-20T01:32:28;16.60;49.10
73121;DHT22;61307;49.628;-1.624;2023-02-20T01:34:55;16.60;49.00
73121;DHT22;61307;49.628;-1.624;2023-02-20T01:37:22;16.60;49.00
73121;DHT22;61307;49.628;-1.624;2023-02-20T01:39:49;16.60;49.00
73121;DHT22;61307;49.628;-1.624;2023-02-20T01:42:19;16.60;49.00
73121;DHT22;61307;49.628;-1.624;2023-02-20T01:44:49;16.60;49.00
73121;DHT22;61307;49.628;-1.624;2023-02-20T01:47:18;16.60;49.00
73121;DHT22;61307;49.628;-1.624;2023-02-20T01:49:49;16.60;49.00
73121;DHT22;61307;49.628;-1.624;2023-02-20T01:52:20;16.60;49.00
73121;DHT22;61307;49.628;-1.624;2023-02-20T01:54:50;16.60;49.00
73121;DHT22;61307;49.628;-1.624;2023-02-20T01:57:21;16.60;49.00
73121;DHT22;61307;49.628;-1.624;2023-02-20T01:59:54;16.60;49.00
73121;DHT22;61307;49.628;-1.624;2023-02-20T02:02:25;16.60;49.00
73121;DHT22;61307;49.628;-1.624;2023-02-20T02:04:54;16.60;49.00
73121;DHT22;61307;49.628;-1.624;2023-02-20T02:07:21;16.60;49.00
73121;DHT22;61307;49.628;-1.624;2023-02-20T02:09:51;16.60;49.00
73121;DHT22;61307;49.628;-1.624;2023-02-20T02:12:19;16.60;49.00
73121;DHT22;61307;49.628;-1.624;2023-02-20T02:14:47;16.60;49.00
73121;DHT22;61307;49.628;-1.624;2023-02-20T02:17:52;16.60;49.00
73121;DHT22;61307;49.628;-1.624;2023-02-20T02:20:47;16.60;49.00
73121;DHT22;61307;49.628;-1.624;2023-02-20T02:23:36;16.60;49.00
73121;DHT22;61307;49.628;-1.624;2023-02-20T02:26:25;16.50;48.90
73121;DHT22;61307;49.628;-1.624;2023-02-20T02:29:19;16.50;49.00
73121;DHT22;61307;49.628;-1.624;2023-02-20T02:32:18;16.50;49.00
73121;DHT22;61307;49.628;-1.624;2023-02-20T02:35:16;16.50;48.90
73121;DHT22;61307;49.628;-1.624;2023-02-20T02:37:55;16.50;49.00
73121;DHT22;61307;49.628;-1.624;2023-02-20T02:40:32;16.50;49.00
73121;DHT22;61307;49.628;-1.624;2023-02-20T02:43:08;16.50;49.00
73121;DHT22;61307;49.628;-1.624;2023-02-20T02:45:41;16.50;49.00
73121;DHT22;61307;49.628;-1.624;2023-02-20T02:48:18;16.50;49.00
73121;DHT22;61307;49.628;-1.624;2023-02-20T02:50:47;16.50;49.00
73121;DHT22;61307;49.628;-1.624;2023-02-20T02:53:17;16.50;48.90
73121;DHT22;61307;49.628;-1.624;2023-02-20T02:55:44;16.50;48.90
73121;DHT22;61307;49.628;-1.624;2023-02-20T02:58:12;16.50;48.90
73121;DHT22;61307;49.628;-1.624;2023-02-20T03:00:44;16.50;48.90
73121;DHT22;61307;49.628;-1.624;2023-02-20T03:03:15;16.50;49.00
73121;DHT22;61307;49.628;-1.624;2023-02-20T03:05:48;16.50;48.90
73121;DHT22;61307;49.628;-1.624;2023-02-20T03:08:22;16.50;48.90
73121;DHT22;61307;49.628;-1.624;2023-02-20T03:10:59;16.50;48.90
73121;DHT22;61307;49.628;-1.624;2023-02-20T03:13:30;16.50;48.90
73121;DHT22;61307;49.628;-1.624;2023-02-20T03:16:18;16.50;48.90
73121;DHT22;61307;49.628;-1.624;2023-02-20T03:18:47;16.50;48.90
73121;DHT22;61307;49.628;-1.624;2023-02-20T03:21:18;16.50;48.90
73121;DHT22;61307;49.628;-1.624;2023-02-20T03:23:51;16.50;48.90
73121;DHT22;61307;49.628;-1.624;2023-02-20T03:26:25;16.50;48.90
73121;DHT22;61307;49.628;-1.624;2023-02-20T03:28:56;16.50;48.90
73121;DHT22;61307;49.628;-1.624;2023-02-20T03:31:30;16.50;48.90
73121;DHT22;61307;49.628;-1.624;2023-02-20T03:34:00;16.50;48.90
73121;DHT22;61307;49.628;-1.624;2023-02-20T03:36:49;16.50;48.80
73121;DHT22;61307;49.628;-1.624;2023-02-20T03:39:40;16.50;48.90
73121;DHT22;61307;49.628;-1.624;2023-02-20T03:42:28;16.50;48.90
73121;DHT22;61307;49.628;-1.624;2023-02-20T03:45:16;16.50;48.80
73121;DHT22;61307;49.628;-1.624;2023-02-20T03:47:48;16.50;48.90
73121;DHT22;61307;49.628;-1.624;2023-02-20T03:50:18;16.50;48.90
73121;DHT22;61307;49.628;-1.624;2023-02-20T03:52:45;16.50;48.80
73121;DHT22;61307;49.628;-1.624;2023-02-20T03:55:14;16.40;48.70
73121;DHT22;61307;49.628;-1.624;2023-02-20T03:57:45;16.50;48.90
73121;DHT22;61307;49.628;-1.624;2023-02-20T04:00:17;16.50;48.90
73121;DHT22;61307;49.628;-1.624;2023-02-20T04:02:46;16.40;48.80
73121;DHT22;61307;49.628;-1.624;2023-02-20T04:05:17;16.40;48.80
73121;DHT22;61307;49.628;-1.624;2023-02-20T04:07:50;16.40;48.80
73121;DHT22;61307;49.628;-1.624;2023-02-20T04:10:23;16.50;48.90
73121;DHT22;61307;49.628;-1.624;2023-02-20T04:12:52;16.40;49.40
73121;DHT22;61307;49.628;-1.624;2023-02-20T04:15:22;16.40;48.80
73121;DHT22;61307;49.628;-1.624;2023-02-20T04:17:53;16.40;48.80
73121;DHT22;61307;49.628;-1.624;2023-02-20T04:20:21;16.40;48.80
73121;DHT22;61307;49.628;-1.624;2023-02-20T04:22:49;16.40;48.80
73121;DHT22;61307;49.628;-1.624;2023-02-20T04:25:25;16.40;48.80
73121;DHT22;61307;49.628;-1.624;2023-02-20T04:27:59;16.40;48.80
73121;DHT22;61307;49.628;-1.624;2023-02-20T04:30:26;16.40;48.70
73121;DHT22;61307;49.628;-1.624;2023-02-20T04:32:54;16.40;48.70
73121;DHT22;61307;49.628;-1.624;2023-02-20T04:35:21;16.40;48.70
73121;DHT22;61307;49.628;-1.624;2023-02-20T04:37:48;16.40;48.70
73121;DHT22;61307;49.628;-1.624;2023-02-20T04:40:18;16.40;48.70
73121;DHT22;61307;49.628;-1.624;2023-02-20T04:42:46;16.40;48.70
73121;DHT22;61307;49.628;-1.624;2023-02-20T04:45:14;16.40;48.70
73121;DHT22;61307;49.628;-1.624;2023-02-20T04:47:42;16.40;48.80
73121;DHT22;61307;49.628;-1.624;2023-02-20T04:52:39;16.40;48.80
73121;DHT22;61307;49.628;-1.624;2023-02-20T04:55:06;16.40;48.80
73121;DHT22;61307;49.628;-1.624;2023-02-20T04:57:33;16.40;48.80
73121;DHT22;61307;49.628;-1.624;2023-02-20T05:00:04;16.40;48.70
73121;DHT22;61307;49.628;-1.624;2023-02-20T05:02:32;16.40;48.80
73121;DHT22;61307;49.628;-1.624;2023-02-20T05:04:59;16.40;48.70
73121;DHT22;61307;49.628;-1.624;2023-02-20T05:07:26;16.40;48.70
73121;DHT22;61307;49.628;-1.624;2023-02-20T05:09:53;16.40;48.70
73121;DHT22;61307;49.628;-1.624;2023-02-20T05:12:20;16.40;48.70
73121;DHT22;61307;49.628;-1.624;2023-02-20T05:14:47;16.40;48.80
73121;DHT22;61307;49.628;-1.624;2023-02-20T05:17:16;16.30;48.70
73121;DHT22;61307;49.628;-1.624;2023-02-20T05:19:43;16.40;48.80
73121;DHT22;61307;49.628;-1.624;2023-02-20T05:22:10;16.40;48.70
73121;DHT22;61307;49.628;-1.624;2023-02-20T05:24:48;16.40;48.80
73121;DHT22;61307;49.628;-1.624;2023-02-20T05:27:19;16.40;48.80
73121;DHT22;61307;49.628;-1.624;2023-02-20T05:29:48;16.30;48.70
73121;DHT22;61307;49.628;-1.624;2023-02-20T05:32:17;16.40;48.80
73121;DHT22;61307;49.628;-1.624;2023-02-20T05:34:45;16.40;48.80
73121;DHT22;61307;49.628;-1.624;2023-02-20T05:37:15;16.30;48.70
73121;DHT22;61307;49.628;-1.624;2023-02-20T05:39:42;16.40;48.80
73121;DHT22;61307;49.628;-1.624;2023-02-20T05:42:10;16.40;48.80
73121;DHT22;61307;49.628;-1.624;2023-02-20T05:44:37;16.40;48.80
73121;DHT22;61307;49.628;-1.624;2023-02-20T05:47:05;16.40;48.80
73121;DHT22;61307;49.628;-1.624;2023-02-20T05:49:35;16.40;48.80
73121;DHT22;61307;49.628;-1.624;2023-02-20T05:52:04;16.40;48.70
73121;DHT22;61307;49.628;-1.624;2023-02-20T05:54:36;16.40;48.70
73121;DHT22;61307;49.628;-1.624;2023-02-20T05:57:03;16.40;48.70
73121;DHT22;61307;49.628;-1.624;2023-02-20T05:59:31;16.50;48.70
73121;DHT22;61307;49.628;-1.624;2023-02-20T06:01:59;16.50;48.60
73121;DHT22;61307;49.628;-1.624;2023-02-20T06:04:27;16.60;48.70
73121;DHT22;61307;49.628;-1.624;2023-02-20T06:06:56;16.60;48.60
73121;DHT22;61307;49.628;-1.624;2023-02-20T06:09:23;16.70;48.70
73121;DHT22;61307;49.628;-1.624;2023-02-20T06:11:51;16.70;48.70
73121;DHT22;61307;49.628;-1.624;2023-02-20T06:14:20;16.80;49.70
73121;DHT22;61307;49.628;-1.624;2023-02-20T06:16:47;16.90;48.50
73121;DHT22;61307;49.628;-1.624;2023-02-20T06:19:18;16.80;48.30
73121;DHT22;61307;49.628;-1.624;2023-02-20T06:21:48;16.80;48.50
73121;DHT22;61307;49.628;-1.624;2023-02-20T06:24:16;16.80;48.80
73121;DHT22;61307;49.628;-1.624;2023-02-20T06:26:44;16.80;49.10
73121;DHT22;61307;49.628;-1.624;2023-02-20T06:29:14;16.70;49.20
73121;DHT22;61307;49.628;-1.624;2023-02-20T06:31:41;16.70;49.40
73121;DHT22;61307;49.628;-1.624;2023-02-20T06:34:09;16.70;49.30
73121;DHT22;61307;49.628;-1.624;2023-02-20T06:36:38;16.70;49.20
73121;DHT22;61307;49.628;-1.624;2023-02-20T06:39:08;16.70;49.00
73121;DHT22;61307;49.628;-1.624;2023-02-20T06:41:37;16.60;48.80
73121;DHT22;61307;49.628;-1.624;2023-02-20T06:44:04;16.70;48.80
73121;DHT22;61307;49.628;-1.624;2023-02-20T06:46:31;16.70;48.70
73121;DHT22;61307;49.628;-1.624;2023-02-20T06:48:58;16.60;48.50
73121;DHT22;61307;49.628;-1.624;2023-02-20T06:51:28;16.60;48.30
73121;DHT22;61307;49.628;-1.624;2023-02-20T06:53:56;16.60;48.10
73121;DHT22;61307;49.628;-1.624;2023-02-20T06:56:25;16.50;48.00
73121;DHT22;61307;49.628;-1.624;2023-02-20T06:58:55;16.50;48.00
73121;DHT22;61307;49.628;-1.624;2023-02-20T07:01:24;16.50;48.00
73121;DHT22;61307;49.628;-1.624;2023-02-20T07:03:53;16.50;48.00
73121;DHT22;61307;49.628;-1.624;2023-02-20T07:06:21;16.40;47.90
73121;DHT22;61307;49.628;-1.624;2023-02-20T07:08:49;16.50;48.00
73121;DHT22;61307;49.628;-1.624;2023-02-20T07:11:16;16.40;47.90
73121;DHT22;61307;49.628;-1.624;2023-02-20T07:13:44;16.40;47.90
73121;DHT22;61307;49.628;-1.624;2023-02-20T07:16:13;16.40;47.90
73121;DHT22;61307;49.628;-1.624;2023-02-20T07:18:41;16.40;47.90
73121;DHT22;61307;49.628;-1.624;2023-02-20T07:21:08;16.40;47.90
73121;DHT22;61307;49.628;-1.624;2023-02-20T07:23:36;16.40;47.90
73121;DHT22;61307;49.628;-1.624;2023-02-20T07:26:03;16.40;47.90
73121;DHT22;61307;49.628;-1.624;2023-02-20T07:28:31;16.40;47.90
73121;DHT22;61307;49.628;-1.624;2023-02-20T07:30:59;16.50;48.00
73121;DHT22;61307;49.628;-1.624;2023-02-20T07:33:29;16.50;48.00
73121;DHT22;61307;49.628;-1.624;2023-02-20T07:35:56;16.60;48.00
73121;DHT22;61307;49.628;-1.624;2023-02-20T07:38:25;16.70;48.00
73121;DHT22;61307;49.628;-1.624;2023-02-20T07:40:55;16.70;47.90
73121;DHT22;61307;49.628;-1.624;2023-02-20T07:43:25;16.80;47.90
73121;DHT22;61307;49.628;-1.624;2023-02-20T07:45:55;16.80;47.90
73121;DHT22;61307;49.628;-1.624;2023-02-20T07:48:25;16.90;47.90
73121;DHT22;61307;49.628;-1.624;2023-02-20T07:50:54;16.90;47.80
73121;DHT22;61307;49.628;-1.624;2023-02-20T07:53:22;17.00;47.80
73121;DHT22;61307;49.628;-1.624;2023-02-20T07:55:50;17.00;47.70
73121;DHT22;61307;49.628;-1.624;2023-02-20T07:58:18;17.00;47.70
73121;DHT22;61307;49.628;-1.624;2023-02-20T08:00:46;17.10;47.70
73121;DHT22;61307;49.628;-1.624;2023-02-20T08:03:15;17.10;47.70
73121;DHT22;61307;49.628;-1.624;2023-02-20T08:05:43;17.20;47.60
73121;DHT22;61307;49.628;-1.624;2023-02-20T08:08:12;17.20;47.60
73121;DHT22;61307;49.628;-1.624;2023-02-20T08:10:39;17.30;47.60
73121;DHT22;61307;49.628;-1.624;2023-02-20T08:13:07;17.30;47.60
73121;DHT22;61307;49.628;-1.624;2023-02-20T08:15:34;17.30;47.50
73121;DHT22;61307;49.628;-1.624;2023-02-20T08:18:01;17.40;47.60
73121;DHT22;61307;49.628;-1.624;2023-02-20T08:20:28;17.40;47.60
73121;DHT22;61307;49.628;-1.624;2023-02-20T08:22:55;17.50;47.60
73121;DHT22;61307;49.628;-1.624;2023-02-20T08:25:26;17.50;47.50
73121;DHT22;61307;49.628;-1.624;2023-02-20T08:27:54;17.60;47.50
73121;DHT22;61307;49.628;-1.624;2023-02-20T08:30:22;17.60;47.40
73121;DHT22;61307;49.628;-1.624;2023-02-20T08:32:49;17.60;47.30
73121;DHT22;61307;49.628;-1.624;2023-02-20T08:35:17;17.60;47.40
73121;DHT22;61307;49.628;-1.624;2023-02-20T08:37:51;17.60;47.30
73121;DHT22;61307;49.628;-1.624;2023-02-20T08:40:21;17.60;47.30
73121;DHT22;61307;49.628;-1.624;2023-02-20T08:42:52;17.60;47.40
73121;DHT22;61307;49.628;-1.624;2023-02-20T08:45:20;17.70;47.40
73121;DHT22;61307;49.628;-1.624;2023-02-20T08:47:49;17.60;47.30
73121;DHT22;61307;49.628;-1.624;2023-02-20T08:50:20;17.70;47.50
73121;DHT22;61307;49.628;-1.624;2023-02-20T08:52:50;17.60;47.40
73121;DHT22;61307;49.628;-1.624;2023-02-20T08:55:22;17.70;47.50
73121;DHT22;61307;49.628;-1.624;2023-02-20T08:57:55;17.70;47.40
73121;DHT22;61307;49.628;-1.624;2023-02-20T09:00:24;17.70;47.50
73121;DHT22;61307;49.628;-1.624;2023-02-20T09:02:53;17.70;47.50
73121;DHT22;61307;49.628;-1.624;2023-02-20T09:05:22;17.80;47.50
73121;DHT22;61307;49.628;-1.624;2023-02-20T09:07:51;17.80;47.50
73121;DHT22;61307;49.628;-1.624;2023-02-20T09:10:20;17.80;47.60
73121;DHT22;61307;49.628;-1.624;2023-02-20T09:12:50;17.80;47.50
73121;DHT22;61307;49.628;-1.624;2023-02-20T09:15:20;17.90;47.60
73121;DHT22;61307;49.628;-1.624;2023-02-20T09:17:51;17.90;47.60
73121;DHT22;61307;49.628;-1.624;2023-02-20T09:20:24;17.90;47.60
73121;DHT22;61307;49.628;-1.624;2023-02-20T09:23:00;17.90;47.60
73121;DHT22;61307;49.628;-1.624;2023-02-20T09:25:29;17.90;47.60
73121;DHT22;61307;49.628;-1.624;2023-02-20T09:27:58;17.90;47.90
73121;DHT22;61307;49.628;-1.624;2023-02-20T09:30:29;18.00;47.60
73121;DHT22;61307;49.628;-1.624;2023-02-20T09:32:59;18.00;47.60
73121;DHT22;61307;49.628;-1.624;2023-02-20T09:35:32;18.00;47.50
73121;DHT22;61307;49.628;-1.624;2023-02-20T09:38:00;18.00;47.50
73121;DHT22;61307;49.628;-1.624;2023-02-20T09:40:37;18.00;47.50
73121;DHT22;61307;49.628;-1.624;2023-02-20T09:43:20;18.10;47.60
73121;DHT22;61307;49.628;-1.624;2023-02-20T09:45:58;18.10;47.50
73121;DHT22;61307;49.628;-1.624;2023-02-20T09:48:39;18.10;47.50
73121;DHT22;61307;49.628;-1.624;2023-02-20T09:51:16;18.10;47.50
73121;DHT22;61307;49.628;-1.624;2023-02-20T09:53:54;18.10;47.50
73121;DHT22;61307;49.628;-1.624;2023-02-20T09:56:26;18.10;47.40
73121;DHT22;61307;49.628;-1.624;2023-02-20T09:58:59;18.10;47.40
73121;DHT22;61307;49.628;-1.624;2023-02-20T10:01:34;18.20;47.50
73121;DHT22;61307;49.628;-1.624;2023-02-20T10:04:08;18.20;47.50
73121;DHT22;61307;49.628;-1.624;2023-02-20T10:06:38;18.20;47.50
73121;DHT22;61307;49.628;-1.624;2023-02-20T10:09:11;18.20;47.40
73121;DHT22;61307;49.628;-1.624;2023-02-20T10:11:45;18.20;47.40
73121;DHT22;61307;49.628;-1.624;2023-02-20T10:17:21;18.30;47.40
73121;DHT22;61307;49.628;-1.624;2023-02-20T10:20:02;18.30;47.40
73121;DHT22;61307;49.628;-1.624;2023-02-20T10:22:32;18.30;47.30
73121;DHT22;61307;49.628;-1.624;2023-02-20T10:25:09;18.30;47.30
73121;DHT22;61307;49.628;-1.624;2023-02-20T10:27:47;18.30;47.20
73121;DHT22;61307;49.628;-1.624;2023-02-20T10:30:25;18.30;47.20
73121;DHT22;61307;49.628;-1.624;2023-02-20T10:33:14;18.30;47.20
73121;DHT22;61307;49.628;-1.624;2023-02-20T10:35:46;18.40;47.30
73121;DHT22;61307;49.628;-1.624;2023-02-20T10:38:22;18.40;47.30
73121;DHT22;61307;49.628;-1.624;2023-02-20T10:41:01;18.40;47.20
73121;DHT22;61307;49.628;-1.624;2023-02-20T10:43:36;18.40;47.20
73121;DHT22;61307;49.628;-1.624;2023-02-20T10:46:10;18.40;47.20
73121;DHT22;61307;49.628;-1.624;2023-02-20T10:48:42;18.40;47.30
73121;DHT22;61307;49.628;-1.624;2023-02-20T10:51:12;18.40;47.20
73121;DHT22;61307;49.628;-1.624;2023-02-20T10:53:45;18.40;47.20
73121;DHT22;61307;49.628;-1.624;2023-02-20T10:56:17;18.50;47.20
73121;DHT22;61307;49.628;-1.624;2023-02-20T10:58:51;18.40;47.10
73121;DHT22;61307;49.628;-1.624;2023-02-20T11:01:21;18.50;47.80
73121;DHT22;61307;49.628;-1.624;2023-02-20T11:03:54;18.50;47.10
73121;DHT22;61307;49.628;-1.624;2023-02-20T11:06:28;18.50;47.10
73121;DHT22;61307;49.628;-1.624;2023-02-20T11:08:56;18.50;47.00
73121;DHT22;61307;49.628;-1.624;2023-02-20T11:11:28;18.50;47.00
73121;DHT22;61307;49.628;-1.624;2023-02-20T11:13:58;18.50;46.90
73121;DHT22;61307;49.628;-1.624;2023-02-20T11:16:29;18.60;47.00
73121;DHT22;61307;49.628;-1.624;2023-02-20T11:19:07;18.60;47.00
73121;DHT22;61307;49.628;-1.624;2023-02-20T11:21:39;18.60;46.90
73121;DHT22;61307;49.628;-1.624;2023-02-20T11:24:28;18.60;46.90
73121;DHT22;61307;49.628;-1.624;2023-02-20T11:27:01;18.60;46.80
73121;DHT22;61307;49.628;-1.624;2023-02-20T11:32:23;18.60;46.70
73121;DHT22;61307;49.628;-1.624;2023-02-20T11:35:11;18.60;46.70
73121;DHT22;61307;49.628;-1.624;2023-02-20T11:37:40;18.60;46.70
73121;DHT22;61307;49.628;-1.624;2023-02-20T11:40:15;18.50;46.60
73121;DHT22;61307;49.628;-1.624;2023-02-20T11:42:43;18.60;46.60
73121;DHT22;61307;49.628;-1.624;2023-02-20T11:45:13;18.60;46.60
73121;DHT22;61307;49.628;-1.624;2023-02-20T11:47:41;18.60;46.60
73121;DHT22;61307;49.628;-1.624;2023-02-20T11:50:16;18.60;46.60
73121;DHT22;61307;49.628;-1.624;2023-02-20T11:52:58;18.60;46.60
73121;DHT22;61307;49.628;-1.624;2023-02-20T11:55:26;18.60;46.60
73121;DHT22;61307;49.628;-1.624;2023-02-20T11:57:55;18.60;46.60
73121;DHT22;61307;49.628;-1.624;2023-02-20T12:00:23;18.60;46.60
73121;DHT22;61307;49.628;-1.624;2023-02-20T12:02:53;18.60;46.50
73121;DHT22;61307;49.628;-1.624;2023-02-20T12:05:35;18.60;46.50
73121;DHT22;61307;49.628;-1.624;2023-02-20T12:08:35;18.60;46.50
73121;DHT22;61307;49.628;-1.624;2023-02-20T12:11:08;18.60;46.50
73121;DHT22;61307;49.628;-1.624;2023-02-20T12:13:41;18.60;46.50
73121;DHT22;61307;49.628;-1.624;2023-02-20T12:16:35;18.60;46.40
73121;DHT22;61307;49.628;-1.624;2023-02-20T12:19:12;18.60;46.40
73121;DHT22;61307;49.628;-1.624;2023-02-20T12:21:53;18.60;46.40
73121;DHT22;61307;49.628;-1.624;2023-02-20T12:24:42;18.60;46.40
73121;DHT22;61307;49.628;-1.624;2023-02-20T12:27:27;18.60;46.40
73121;DHT22;61307;49.628;-1.624;2023-02-20T12:30:05;18.60;46.40
73121;DHT22;61307;49.628;-1.624;2023-02-20T12:32:49;18.60;46.30
73121;DHT22;61307;49.628;-1.624;2023-02-20T12:35:29;18.60;46.30
73121;DHT22;61307;49.628;-1.624;2023-02-20T12:38:27;18.60;46.30
73121;DHT22;61307;49.628;-1.624;2023-02-20T12:41:17;18.60;46.30
73121;DHT22;61307;49.628;-1.624;2023-02-20T12:43:54;18.60;46.20
73121;DHT22;61307;49.628;-1.624;2023-02-20T12:46:30;18.60;46.30
73121;DHT22;61307;49.628;-1.624;2023-02-20T12:49:13;18.70;46.30
73121;DHT22;61307;49.628;-1.624;2023-02-20T12:51:49;18.70;46.30
73121;DHT22;61307;49.628;-1.624;2023-02-20T12:54:27;18.70;46.30
73121;DHT22;61307;49.628;-1.624;2023-02-20T12:57:04;18.60;46.30
73121;DHT22;61307;49.628;-1.624;2023-02-20T12:59:39;18.60;46.30
73121;DHT22;61307;49.628;-1.624;2023-02-20T13:02:18;18.60;46.40
73121;DHT22;61307;49.628;-1.624;2023-02-20T13:04:51;18.60;46.50
73121;DHT22;61307;49.628;-1.624;2023-02-20T13:07:23;18.60;46.60
73121;DHT22;61307;49.628;-1.624;2023-02-20T13:09:59;18.60;46.60
73121;DHT22;61307;49.628;-1.624;2023-02-20T13:12:27;18.70;46.70
73121;DHT22;61307;49.628;-1.624;2023-02-20T13:15:05;18.60;46.60
73121;DHT22;61307;49.628;-1.624;2023-02-20T13:17:38;18.60;46.60
73121;DHT22;61307;49.628;-1.624;2023-02-20T13:20:16;18.60;46.60
73121;DHT22;61307;49.628;-1.624;2023-02-20T13:22:58;18.70;46.70
73121;DHT22;61307;49.628;-1.624;2023-02-20T13:25:39;18.70;46.70
73121;DHT22;61307;49.628;-1.624;2023-02-20T13:28:37;18.70;46.70
73121;DHT22;61307;49.628;-1.624;2023-02-20T13:31:16;18.70;46.80
73121;DHT22;61307;49.628;-1.624;2023-02-20T13:33:45;18.70;46.80
73121;DHT22;61307;49.628;-1.624;2023-02-20T13:36:36;18.70;46.80
73121;DHT22;61307;49.628;-1.624;2023-02-20T13:39:34;18.70;46.80
73121;DHT22;61307;49.628;-1.624;2023-02-20T13:42:06;18.70;46.80
73121;DHT22;61307;49.628;-1.624;2023-02-20T13:44:51;18.70;46.90
73121;DHT22;61307;49.628;-1.624;2023-02-20T13:47:42;18.70;46.80
73121;DHT22;61307;49.628;-1.624;2023-02-20T13:50:33;18.70;46.90
73121;DHT22;61307;49.628;-1.624;2023-02-20T13:53:03;18.70;46.90
73121;DHT22;61307;49.628;-1.624;2023-02-20T13:55:31;18.80;47.10
73121;DHT22;61307;49.628;-1.624;2023-02-20T13:58:07;18.80;47.00
73121;DHT22;61307;49.628;-1.624;2023-02-20T14:00:45;18.80;47.00
73121;DHT22;61307;49.628;-1.624;2023-02-20T14:03:18;18.80;47.10
73121;DHT22;61307;49.628;-1.624;2023-02-20T14:06:00;18.80;47.10
73121;DHT22;61307;49.628;-1.624;2023-02-20T14:08:27;18.80;47.10
73121;DHT22;61307;49.628;-1.624;2023-02-20T14:10:57;18.80;47.80
73121;DHT22;61307;49.628;-1.624;2023-02-20T14:13:31;18.80;47.10
73121;DHT22;61307;49.628;-1.624;2023-02-20T14:15:59;18.80;47.10
73121;DHT22;61307;49.628;-1.624;2023-02-20T14:18:29;18.80;47.30
73121;DHT22;61307;49.628;-1.624;2023-02-20T14:21:05;18.80;47.40
73121;DHT22;61307;49.628;-1.624;2023-02-20T14:23:34;18.80;47.40
73121;DHT22;61307;49.628;-1.624;2023-02-20T14:26:04;18.80;47.50
73121;DHT22;61307;49.628;-1.624;2023-02-20T14:28:34;18.80;47.50
73121;DHT22;61307;49.628;-1.624;2023-02-20T14:31:17;18.80;47.60
73121;DHT22;61307;49.628;-1.624;2023-02-20T14:33:46;18.90;47.70
73121;DHT22;61307;49.628;-1.624;2023-02-20T14:36:31;18.90;47.60
73121;DHT22;61307;49.628;-1.624;2023-02-20T14:39:09;18.90;47.70
73121;DHT22;61307;49.628;-1.624;2023-02-20T14:41:50;18.90;47.80
73121;DHT22;61307;49.628;-1.624;2023-02-20T14:44:19;18.80;47.70
73121;DHT22;61307;49.628;-1.624;2023-02-20T14:46:50;18.80;47.60
73121;DHT22;61307;49.628;-1.624;2023-02-20T14:49:23;18.80;47.70
73121;DHT22;61307;49.628;-1.624;2023-02-20T14:51:51;18.80;47.70
73121;DHT22;61307;49.628;-1.624;2023-02-20T14:54:19;18.90;47.70
73121;DHT22;61307;49.628;-1.624;2023-02-20T14:56:50;18.80;47.60
73121;DHT22;61307;49.628;-1.624;2023-02-20T14:59:24;18.90;48.30
73121;DHT22;61307;49.628;-1.624;2023-02-20T15:01:54;18.80;47.50
73121;DHT22;61307;49.628;-1.624;2023-02-20T15:04:24;18.90;47.60
73121;DHT22;61307;49.628;-1.624;2023-02-20T15:06:54;18.90;47.60
73121;DHT22;61307;49.628;-1.624;2023-02-20T15:09:34;18.90;47.50
73121;DHT22;61307;49.628;-1.624;2023-02-20T15:12:02;18.90;48.10
73121;DHT22;61307;49.628;-1.624;2023-02-20T15:14:33;18.90;47.50
73121;DHT22;61307;49.628;-1.624;2023-02-20T15:17:08;18.90;47.40
73121;DHT22;61307;49.628;-1.624;2023-02-20T15:19:44;18.90;47.40
73121;DHT22;61307;49.628;-1.624;2023-02-20T15:22:22;18.90;47.30
73121;DHT22;61307;49.628;-1.624;2023-02-20T15:24:51;18.80;47.20
73121;DHT22;61307;49.628;-1.624;2023-02-20T15:27:19;18.90;47.30
73121;DHT22;61307;49.628;-1.624;2023-02-20T15:30:09;18.90;47.20
73121;DHT22;61307;49.628;-1.624;2023-02-20T15:32:39;18.90;47.30
73121;DHT22;61307;49.628;-1.624;2023-02-20T15:35:13;18.90;47.20
73121;DHT22;61307;49.628;-1.624;2023-02-20T15:37:41;18.90;47.10
73121;DHT22;61307;49.628;-1.624;2023-02-20T15:40:18;18.90;47.20
73121;DHT22;61307;49.628;-1.624;2023-02-20T15:42:46;18.90;47.20
73121;DHT22;61307;49.628;-1.624;2023-02-20T15:45:16;18.90;47.10
73121;DHT22;61307;49.628;-1.624;2023-02-20T15:47:43;18.90;47.10
73121;DHT22;61307;49.628;-1.624;2023-02-20T15:50:10;18.90;47.10
73121;DHT22;61307;49.628;-1.624;2023-02-20T15:52:37;18.90;47.10
73121;DHT22;61307;49.628;-1.624;2023-02-20T15:55:05;18.90;47.10